Home   Weather   USA   Time   Past weeks
Flag for USA

Past Weather in Time, Illinois, USA — Yesterday and Last 2 Weeks

Currently: 69 °F. Clear. (Weather station: Pittsfield Penstone Municipal Airport, USA). See more current weather

Past Weather in Time — Graph

°F

Time Temperature Yesterday

Maximum temperature yesterday: 88 °F (at 4:35 pm)
Minimum temperature yesterday: 64 °F (at 12:55 am)
Average temperature yesterday: 76 °F

High & Low Weather Summary for the Past Weeks

 TemperatureHumidityPressure
High96 °F (Jun 16, 4:55 pm)100% (Jun 17, 4:35 am)30.33 "Hg (Jun 17, 4:35 am)
Low56 °F (Jun 19, 5:55 am)37% (Jun 16, 4:55 pm)29.87 "Hg (Jun 15, 4:15 pm)
Average77 °F70%30.11 "Hg
* Reported Jun 15 12:00 am — Jun 30 12:15 am, Time. Weather by CustomWeather, © 2022

Note: Actual official high and low records may vary slightly from our data, if they occured in-between our weather recording intervals... More about our weather records

Time Weather History for the Previous 24 Hours

Scroll right to see more
 ConditionsComfort  
Time TempWeatherWind HumidityBarometerVisibility
12:15 am
Thu, Jun 30
70 °FClear.5 mph82%30.17 "Hg10 mi
11:55 pm
Wed, Jun 29
70 °FClear.5 mph81%30.17 "Hg10 mi
11:35 pm72 °FClear.5 mph78%30.16 "Hg10 mi
11:15 pm72 °FClear.5 mph76%30.16 "Hg10 mi
10:55 pm74 °FClear.5 mph73%30.16 "Hg10 mi
10:35 pm73 °FClear.6 mph75%30.16 "Hg10 mi
10:15 pm72 °FClear.3 mph79%30.16 "Hg10 mi
9:55 pm74 °FClear.5 mph75%30.15 "Hg10 mi
9:35 pm74 °FClear.5 mph78%30.15 "Hg10 mi
8:55 pm75 °FClear.5 mph74%30.14 "Hg10 mi
8:35 pm78 °FClear.5 mph68%30.13 "Hg10 mi
8:15 pm80 °FSunny.5 mph65%30.13 "Hg10 mi
7:55 pm82 °FSunny.5 mph61%30.13 "Hg10 mi
6:35 pm86 °FSunny.6 mph50%30.14 "Hg10 mi
6:15 pm87 °FSunny.7 mph50%30.14 "Hg10 mi
5:55 pm87 °FSunny.7 mph51%30.14 "Hg10 mi
5:35 pm88 °FSunny.8 mph50%30.15 "Hg10 mi
4:55 pm88 °FSunny.8 mph47%30.16 "Hg10 mi
4:35 pm88 °FSunny.8 mph48%30.17 "Hg10 mi
4:15 pm88 °FSunny.6 mph47%30.17 "Hg10 mi
3:55 pm88 °FSunny.5 mph47%30.18 "Hg10 mi
3:35 pm88 °FSunny.5 mph47%30.18 "Hg10 mi
2:55 pm88 °FSunny.5 mph47%30.19 "Hg10 mi
1:55 pm87 °FSunny.6 mph47%30.20 "Hg10 mi
1:35 pm87 °FSunny.7 mph46%30.20 "Hg10 mi
12:55 pm86 °FSunny.3 mph48%30.21 "Hg10 mi
12:15 pm84 °FSunny.5 mph51%30.22 "Hg10 mi
11:55 am83 °FSunny.6 mph51%30.23 "Hg10 mi
11:35 am82 °FSunny.6 mph51%30.23 "Hg10 mi
10:55 am82 °FSunny.7 mph50%30.23 "Hg10 mi
10:35 am81 °FSunny.7 mph52%30.23 "Hg10 mi
10:15 am80 °FSunny.7 mph51%30.23 "Hg10 mi
9:55 am79 °FSunny.5 mph51%30.23 "Hg10 mi
9:15 am76 °FSunny.7 mph55%30.23 "Hg10 mi
8:55 am75 °FSunny.8 mph58%30.23 "Hg10 mi
8:35 am74 °FSunny.5 mph60%30.23 "Hg10 mi
7:55 am71 °FSunny.3 mph62%30.21 "Hg10 mi
7:15 am68 °FSunny.5 mph69%30.21 "Hg10 mi
6:55 am67 °FSunny.3 mph70%30.21 "Hg10 mi
6:15 am65 °FSunny.5 mph69%30.20 "Hg10 mi
5:55 am65 °FSunny.5 mph71%30.20 "Hg10 mi
5:35 am64 °FClear.3 mph72%30.20 "Hg10 mi
5:15 am65 °FClear.3 mph70%30.20 "Hg10 mi
4:55 am65 °FClear.6 mph71%30.19 "Hg10 mi
4:35 am64 °FClear.6 mph75%30.19 "Hg10 mi
3:55 am64 °FClear.3 mph75%30.19 "Hg10 mi
3:35 am65 °FClear.5 mph73%30.19 "Hg10 mi
3:15 am65 °FClear.5 mph74%30.19 "Hg10 mi
2:35 am65 °FClear.6 mph75%30.18 "Hg10 mi
1:55 am65 °FClear.6 mph74%30.18 "Hg10 mi
1:35 am64 °FClear.5 mph77%30.18 "Hg10 mi
Weather by CustomWeather, © 2022

See weather overview